Tuesday, January 15, 2019, 6:28 PM EST
Back to Local

KPBG, Plattsburgh International Airport

Location: Plattsburgh, NY, United States Lat: 44.65
Local Time: 6:28 PM EST (23:28 GMT) Lon: -73.467
Time Zone: US/Eastern Elev: 239 ft

Show me the last for .
Show Decoded

2019-01-15 17:53 METAR KPBG 152253Z AUTO 00000KT 10SM OVC021 M03/M07 A3004 RMK AO2 SLP176
                 T10331067 =
2019-01-15 16:53 METAR KPBG 152153Z AUTO 00000KT 10SM BKN028 OVC047 M03/M07 A3004 RMK AO2 SLP177
                 T10331072 =
2019-01-15 16:46 METAR KPBG 152146Z AUTO 20003KT 10SM BKN028 OVC049 M03/M07 A3004 RMK AO2
                 T10331072 =
2019-01-15 15:53 METAR KPBG 152053Z AUTO 16007KT 10SM SCT028 BKN048 OVC060 M03/M07 A3005 RMK AO2
                 SLP179 T10331067 58006 =
2019-01-15 14:53 METAR KPBG 151953Z AUTO 14008KT 10SM BKN042 OVC070 M03/M07 A3005 RMK AO2 SLP182
                 T10331067 =
2019-01-15 13:53 METAR KPBG 151853Z AUTO 14006KT 10SM SCT025 OVC041 M03/M07 A3006 RMK AO2 SLP184
                 T10331067 =
2019-01-15 12:53 METAR KPBG 151753Z AUTO 14008KT 10SM BKN040 OVC050 M04/M07 A3007 RMK AO2 SLP186
                 T10391072 11033 21061 58023 =
2019-01-15 11:53 METAR KPBG 151653Z AUTO 14008KT 10SM FEW025 BKN043 OVC055 M04/M07 A3009 RMK AO2
                 SLP194 T10391072 =
2019-01-15 10:53 METAR KPBG 151553Z AUTO 15008KT 10SM FEW022 FEW027 OVC044 M05/M07 A3012 RMK AO2
                 SLP205 T10501072 =
2019-01-15 09:53 METAR KPBG 151453Z AUTO 14006KT 10SM OVC017 M05/M07 A3013 RMK AO2 SLP209
                 T10501072 53010 =
2019-01-15 08:53 METAR KPBG 151353Z AUTO 14005KT 10SM OVC017 M05/M07 A3012 RMK AO2 SLP203
                 T10501067 =
2019-01-15 07:53 METAR KPBG 151253Z AUTO 00000KT 10SM OVC020 M06/M08 A3011 RMK AO2 SLP201
                 T10561078 =
2019-01-15 06:53 METAR KPBG 151153Z AUTO 00000KT 10SM OVC026 M06/M08 A3010 RMK AO2 SLP199
                 T10561078 11056 21111 56001 =
2019-01-15 05:53 METAR KPBG 151053Z AUTO 00000KT 10SM OVC022 M07/M08 A3010 RMK AO2 SLP198
                 T10671083 =
2019-01-15 04:53 METAR KPBG 150953Z AUTO 17003KT 10SM OVC028 M07/M09 A3009 RMK AO2 SLP195
                 T10721094 =
2019-01-15 04:16 METAR KPBG 150916Z AUTO 00000KT 10SM BKN026 OVC031 M08/M09 A3010 RMK AO2
                 T10781094 =
2019-01-15 03:53 METAR KPBG 150853Z AUTO 00000KT 10SM SCT024 OVC031 M08/M10 A3011 RMK AO2 SLP200
                 T10831100 58009 =
2019-01-15 02:53 METAR KPBG 150753Z AUTO 00000KT 10SM OVC028 M09/M11 A3012 RMK AO2 SLP206
                 T10891106 =
2019-01-15 01:53 METAR KPBG 150653Z AUTO 00000KT 10SM OVC027 M10/M12 A3013 RMK AO2 SLP209
                 T11001117 =
2019-01-15 00:53 METAR KPBG 150553Z AUTO 23004KT 10SM OVC026 M11/M12 A3013 RMK AO2 SLP210 I6000
                 T11111122 11106 21139 58015 =
2019-01-15 00:42 METAR KPBG 150542Z AUTO 22005KT 10SM BKN027 M11/M13 A3014 RMK AO2 T11111128 =
2019-01-14 23:53 METAR KPBG 150453Z AUTO 24004KT 10SM CLR M13/M15 A3016 RMK AO2 SLP218 T11281150
                 410891167 =
2019-01-14 22:53 METAR KPBG 150353Z AUTO 00000KT 10SM CLR M13/M15 A3017 RMK AO2 SLP223 T11331150
                 =
2019-01-14 21:53 METAR KPBG 150253Z AUTO 00000KT 10SM CLR M13/M15 A3018 RMK AO2 SLP225 I1000
                 I3000 T11331150 55003 =
2019-01-14 20:53 METAR KPBG 150153Z AUTO 00000KT 10SM CLR M13/M14 A3017 RMK AO2 SLP223 I1000
                 T11281139 =
2019-01-14 19:53 METAR KPBG 150053Z AUTO 00000KT 10SM CLR M12/M13 A3017 RMK AO2 SLP223 I1000
                 T11221133 =
2019-01-14 18:53 METAR KPBG 142353Z AUTO 00000KT 10SM CLR M12/M13 A3019 RMK AO2 SLP228 T11171133
                 11089 21117 56013 =

Support USWX by starting your Amazon purchase here.